Terminal Aerodrome Forecast
Issued by NWS

Home | Current Version | Previous Version | Text Only | Print | Product List | Glossary On
Versions: 1 2 3 4 5 6 7 8 9 10 11 12 13 14 15 16 17 18 19 20 21 22 23 24 25 26 27
000
FTUS43 KDLH 050536
TAFBRD
TAF
KBRD 050536Z 0506/0606 15005KT 6SM BR SCT100
      TEMPO 0509/0512 1SM BR SCT002
     FM051500 16010KT P6SM SCT040
     FM051800 17012G20KT P6SM BKN060
     FM052300 16005KT P6SM VCSH OVC050 WS020/19035KT=

USA.gov is the U.S. government's official web portal to all federal, state and local government web resources and services.